Time;durP1;ratioP1;P1;durP2;ratioP2;P2;SDS_P1;SDS_P2;PMS_P1;PMS_P2;Temp;Humidity;BMP_temperature;BMP_pressure;BME280_temperature;BME280_humidity;BME280_pressure;Samples;Min_cycle;Max_cycle;Signal;HPM_P1;HPM_P2
2022/05/05 00:00:29;;;;;;;10.87;10.57;;;12.50;99.90;;;;;;6141505;23;20197;-82
2022/05/05 00:02:59;;;;;;;10.73;10.43;;;12.50;99.90;;;;;;6142309;23;20200;-82
2022/05/05 00:05:28;;;;;;;10.97;10.67;;;12.50;99.90;;;;;;6140670;23;20209;-82
2022/05/05 00:07:59;;;;;;;10.73;10.43;;;12.60;99.90;;;;;;6141433;23;20203;-82
2022/05/05 00:16:19;;;;;;;11.00;10.70;;;12.50;99.90;;;;;;6141632;23;20193;-82
2022/05/05 00:18:48;;;;;;;11.00;10.70;;;12.50;99.90;;;;;;6138983;23;20193;-82
2022/05/05 00:21:18;;;;;;;11.27;10.87;;;12.50;99.90;;;;;;6141153;23;20236;-82
2022/05/05 00:23:47;;;;;;;10.80;10.50;;;12.30;99.90;;;;;;6140946;23;20257;-82
2022/05/05 00:26:17;;;;;;;10.80;10.50;;;12.30;99.90;;;;;;6141074;23;20256;-82
2022/05/05 00:28:46;;;;;;;10.90;10.60;;;12.30;99.90;;;;;;6140722;23;20193;-82
2022/05/05 00:31:24;;;;;;;10.87;10.57;;;12.30;99.90;;;;;;6141638;23;20197;-82
2022/05/05 00:33:54;;;;;;;10.93;10.63;;;12.30;99.90;;;;;;6142113;23;20193;-82
2022/05/05 00:36:23;;;;;;;10.80;10.50;;;12.40;99.90;;;;;;6140629;23;20200;-82
2022/05/05 00:38:53;;;;;;;10.83;10.53;;;12.40;99.90;;;;;;6141050;23;20207;-81
2022/05/05 00:41:23;;;;;;;10.67;10.37;;;12.40;99.90;;;;;;6140282;23;20200;-82
2022/05/05 00:43:52;;;;;;;11.03;10.73;;;12.40;99.90;;;;;;6141214;23;20197;-81
2022/05/05 00:46:30;;;;;;;10.70;10.40;;;12.40;99.90;;;;;;6141354;23;20193;-81
2022/05/05 00:48:59;;;;;;;10.80;10.50;;;12.40;99.90;;;;;;6140429;23;20257;-82
2022/05/05 00:51:29;;;;;;;10.97;10.67;;;12.40;99.90;;;;;;6141303;23;20233;-82
2022/05/05 00:53:58;;;;;;;10.63;10.33;;;12.30;99.90;;;;;;6140490;23;20201;-82
2022/05/05 00:56:28;;;;;;;10.60;10.30;;;12.30;99.90;;;;;;6141098;23;20207;-82
2022/05/05 00:58:58;;;;;;;10.70;10.40;;;12.30;99.90;;;;;;6141189;23;20197;-82
2022/05/05 01:01:35;;;;;;;10.70;10.40;;;12.30;99.90;;;;;;6140495;23;20217;-82
2022/05/05 01:04:03;;;;;;;10.80;10.50;;;12.30;99.90;;;;;;6152522;23;20228;-80
2022/05/05 01:06:34;;;;;;;10.50;10.20;;;12.20;99.90;;;;;;6159147;23;20177;-80
2022/05/05 01:09:05;;;;;;;10.63;10.33;;;12.20;99.90;;;;;;6159258;23;20204;-81
2022/05/05 01:11:33;;;;;;;10.73;10.43;;;12.20;99.90;;;;;;6159499;23;20185;-82
2022/05/05 01:14:02;;;;;;;10.70;10.40;;;12.20;99.90;;;;;;6159097;23;20185;-82
2022/05/05 01:16:33;;;;;;;10.70;10.40;;;12.20;99.90;;;;;;6159866;23;20245;-81
2022/05/05 01:19:01;;;;;;;10.73;10.43;;;12.20;99.90;;;;;;6159996;23;20244;-81
2022/05/05 01:21:32;;;;;;;10.90;10.60;;;12.20;99.90;;;;;;6160065;23;20257;-82
2022/05/05 01:24:00;;;;;;;10.57;10.27;;;12.20;99.90;;;;;;6160233;23;20181;-82
2022/05/05 01:29:13;;;;;;;10.57;10.27;;;12.20;99.90;;;;;;6153031;23;20185;-82
2022/05/05 01:31:46;;;;;;;10.57;10.27;;;12.20;99.90;;;;;;6153971;23;20248;-82
2022/05/05 01:34:16;;;;;;;10.50;10.20;;;12.20;99.90;;;;;;6159823;23;20193;-81
2022/05/05 01:36:49;;;;;;;10.57;10.27;;;12.20;99.90;;;;;;6159733;23;20173;-82
2022/05/05 01:39:17;;;;;;;10.50;10.20;;;12.20;99.90;;;;;;6159745;23;20252;-81
2022/05/05 01:41:47;;;;;;;10.50;10.20;;;12.20;99.90;;;;;;6159696;23;20208;-82
2022/05/05 01:44:15;;;;;;;10.67;10.37;;;12.20;99.90;;;;;;6155343;23;20204;-82
2022/05/05 01:46:43;;;;;;;10.50;10.20;;;12.10;99.90;;;;;;6152518;23;20197;-82
2022/05/05 01:49:11;;;;;;;10.80;10.50;;;12.10;99.90;;;;;;6153554;23;20224;-82
2022/05/05 01:51:39;;;;;;;10.63;10.33;;;12.10;99.90;;;;;;6152469;23;20197;-81
2022/05/05 01:54:08;;;;;;;10.60;10.30;;;12.10;99.90;;;;;;6151579;23;20205;-82
2022/05/05 01:56:36;;;;;;;10.67;10.37;;;12.00;99.90;;;;;;6141275;23;20200;-81
2022/05/05 01:59:04;;;;;;;10.83;10.53;;;12.10;99.90;;;;;;6138733;23;20280;-82
2022/05/05 02:01:33;;;;;;;10.70;10.40;;;12.10;99.90;;;;;;6138257;23;20189;-81
2022/05/05 02:04:01;;;;;;;10.93;10.63;;;12.10;99.90;;;;;;6138062;23;20211;-81
2022/05/05 02:06:30;;;;;;;10.67;10.37;;;12.00;99.90;;;;;;6137965;23;20219;-81
2022/05/05 02:08:58;;;;;;;10.90;10.60;;;12.00;99.90;;;;;;6138803;23;20201;-82
2022/05/05 02:11:30;;;;;;;10.60;10.30;;;12.10;99.90;;;;;;6137929;23;20208;-81
2022/05/05 02:13:58;;;;;;;11.00;10.70;;;12.00;99.90;;;;;;6149803;23;20233;-82
2022/05/05 02:16:29;;;;;;;10.80;10.50;;;12.10;99.90;;;;;;6141877;23;20264;-82
2022/05/05 02:18:57;;;;;;;10.77;10.47;;;12.00;99.90;;;;;;6140482;23;20221;-82
2022/05/05 02:21:24;;;;;;;11.00;10.70;;;12.00;99.90;;;;;;6139082;23;20272;-82
2022/05/05 02:23:54;;;;;;;11.23;10.83;;;12.10;99.90;;;;;;6139319;23;20209;-82
2022/05/05 02:26:22;;;;;;;11.17;10.77;;;12.00;99.90;;;;;;6138670;23;20196;-83
2022/05/05 02:28:51;;;;;;;10.93;10.63;;;12.00;99.90;;;;;;6138668;23;20207;-82
2022/05/05 02:31:19;;;;;;;10.80;10.50;;;12.00;99.90;;;;;;6138715;23;20234;-83
2022/05/05 02:33:46;;;;;;;10.90;10.60;;;12.00;99.90;;;;;;6138614;23;20208;-82
2022/05/05 02:39:01;;;;;;;10.87;10.57;;;12.10;99.90;;;;;;6139195;23;20272;-82
2022/05/05 02:41:29;;;;;;;10.60;10.30;;;12.10;99.90;;;;;;6138343;23;20204;-82
2022/05/05 02:43:58;;;;;;;10.90;10.60;;;12.10;99.90;;;;;;6138043;23;20213;-82
2022/05/05 02:46:26;;;;;;;11.23;10.87;;;12.10;99.90;;;;;;6138169;23;20205;-82
2022/05/05 02:48:53;;;;;;;11.30;10.90;;;12.10;99.90;;;;;;6137081;23;20231;-82
2022/05/05 02:51:21;;;;;;;11.47;11.07;;;12.10;99.90;;;;;;6138046;23;20212;-83
2022/05/05 02:56:34;;;;;;;10.63;10.33;;;12.20;99.90;;;;;;6139369;23;20181;-82
2022/05/05 02:59:05;;;;;;;11.10;10.80;;;12.20;99.90;;;;;;6137865;23;20192;-82
2022/05/05 03:01:34;;;;;;;10.97;10.67;;;12.20;99.90;;;;;;6138314;23;20200;-82
2022/05/05 03:04:04;;;;;;;11.03;10.73;;;12.20;99.90;;;;;;6137796;23;20666;-82
2022/05/05 03:06:32;;;;;;;11.17;10.87;;;12.20;99.90;;;;;;6140622;23;20197;-82
2022/05/05 03:09:05;;;;;;;10.90;10.60;;;12.20;99.90;;;;;;6147128;23;20200;-83
2022/05/05 03:11:33;;;;;;;10.87;10.57;;;12.20;99.90;;;;;;6142469;23;20208;-83
2022/05/05 03:14:03;;;;;;;10.70;10.40;;;12.20;99.90;;;;;;6141126;23;20200;-82
2022/05/05 03:16:31;;;;;;;10.80;10.50;;;12.20;99.90;;;;;;6140666;23;20200;-82
2022/05/05 03:18:59;;;;;;;10.70;10.40;;;12.20;99.90;;;;;;6145352;23;20197;-82
2022/05/05 03:21:29;;;;;;;10.60;10.30;;;12.20;99.90;;;;;;6154385;23;20224;-81
2022/05/05 03:23:57;;;;;;;10.53;10.23;;;12.10;99.90;;;;;;6154917;23;20209;-82
2022/05/05 03:26:25;;;;;;;10.17;9.87;;;12.10;99.90;;;;;;6153930;23;20203;-82
2022/05/05 03:28:53;;;;;;;10.73;10.43;;;12.20;99.90;;;;;;6154527;23;20201;-83
2022/05/05 03:31:22;;;;;;;10.63;10.33;;;12.10;99.90;;;;;;6154130;23;20189;-82
2022/05/05 03:33:50;;;;;;;10.20;9.90;;;12.10;99.90;;;;;;6153993;23;20260;-83
2022/05/05 03:36:18;;;;;;;11.13;10.77;;;12.20;99.90;;;;;;6153076;23;20229;-83
2022/05/05 03:38:47;;;;;;;11.27;10.87;;;12.10;99.90;;;;;;6153710;23;20193;-82
2022/05/05 03:41:14;;;;;;;11.57;11.17;;;12.10;99.90;;;;;;6155206;23;20217;-83
2022/05/05 03:43:42;;;;;;;11.40;11.00;;;12.10;99.90;;;;;;6156048;23;20211;-83
2022/05/05 03:46:11;;;;;;;11.70;11.30;;;12.20;99.90;;;;;;6154091;23;20370;-83
2022/05/05 03:48:40;;;;;;;11.47;11.07;;;12.20;99.90;;;;;;6154162;23;20189;-83
2022/05/05 03:51:09;;;;;;;11.77;11.37;;;12.20;99.90;;;;;;6155450;23;20209;-83
2022/05/05 03:53:39;;;;;;;11.40;11.00;;;12.20;99.90;;;;;;6147095;23;20205;-81
2022/05/05 03:56:08;;;;;;;11.63;11.23;;;12.20;99.90;;;;;;6143893;23;20247;-82
2022/05/05 03:58:36;;;;;;;11.40;11.00;;;12.20;99.90;;;;;;6146094;23;20209;-83
2022/05/05 04:01:04;;;;;;;11.80;11.40;;;12.20;99.90;;;;;;6143643;23;20211;-82
2022/05/05 04:03:43;;;;;;;11.33;10.93;;;12.20;99.90;;;;;;6147783;23;20211;-82
2022/05/05 04:06:16;;;;;;;11.10;10.70;;;12.20;99.90;;;;;;6147876;23;20201;-82
2022/05/05 04:08:44;;;;;;;11.53;11.13;;;12.20;99.90;;;;;;6143062;23;20233;-81
2022/05/05 04:11:12;;;;;;;11.60;11.20;;;12.20;99.90;;;;;;6142227;23;20213;-81
2022/05/05 04:13:41;;;;;;;11.80;11.40;;;12.30;99.90;;;;;;6142432;23;20200;-81
2022/05/05 04:16:09;;;;;;;11.80;11.40;;;12.30;99.90;;;;;;6142676;23;20193;-82
2022/05/05 04:18:36;;;;;;;11.40;11.00;;;12.30;99.90;;;;;;6141243;23;20208;-82
2022/05/05 04:21:08;;;;;;;11.47;11.07;;;12.30;99.90;;;;;;6141212;23;20209;-81
2022/05/05 04:23:38;;;;;;;11.30;10.90;;;12.30;99.90;;;;;;6141900;23;20204;-81
2022/05/05 04:26:06;;;;;;;11.50;11.10;;;12.30;99.90;;;;;;6141274;23;20205;-82
2022/05/05 04:28:34;;;;;;;11.63;11.23;;;12.30;99.90;;;;;;6140539;23;20201;-82
2022/05/05 04:31:02;;;;;;;11.20;10.80;;;12.30;99.90;;;;;;6140349;23;21049;-81
2022/05/05 04:33:30;;;;;;;11.77;11.37;;;12.40;99.90;;;;;;6139616;23;20225;-82
2022/05/05 04:35:58;;;;;;;11.70;11.30;;;12.30;99.90;;;;;;6139067;23;20199;-81
2022/05/05 04:38:30;;;;;;;11.50;11.10;;;12.30;99.90;;;;;;6139233;23;20208;-81
2022/05/05 04:41:00;;;;;;;11.50;11.10;;;12.30;99.90;;;;;;6139503;23;20201;-81
2022/05/05 04:43:28;;;;;;;11.23;10.83;;;12.30;99.90;;;;;;6139653;23;20205;-81
2022/05/05 04:45:57;;;;;;;11.40;11.00;;;12.40;99.90;;;;;;6139851;23;20193;-81
2022/05/05 04:48:25;;;;;;;11.80;11.40;;;12.40;99.90;;;;;;6139317;23;20204;-82
2022/05/05 04:50:53;;;;;;;11.00;10.70;;;12.40;99.90;;;;;;6139230;23;20200;-81
2022/05/05 04:53:21;;;;;;;11.33;10.93;;;12.40;99.90;;;;;;6142197;23;20205;-81
2022/05/05 04:55:48;;;;;;;11.33;10.93;;;12.40;99.90;;;;;;6148713;23;20196;-82
2022/05/05 04:58:19;;;;;;;11.50;11.10;;;12.40;99.90;;;;;;6149651;23;20193;-82
2022/05/05 05:00:46;;;;;;;11.60;11.20;;;12.40;99.90;;;;;;6145411;23;20237;-81
2022/05/05 05:05:56;;;;;;;11.90;11.50;;;12.50;99.90;;;;;;6149536;23;20201;-81
2022/05/05 05:08:23;;;;;;;11.97;11.57;;;12.50;99.90;;;;;;6143129;23;20197;-81
2022/05/05 05:10:51;;;;;;;11.73;11.33;;;12.50;99.90;;;;;;6141422;23;20209;-81
2022/05/05 05:13:22;;;;;;;11.70;11.30;;;12.60;99.90;;;;;;6142825;23;20205;-82
2022/05/05 05:15:50;;;;;;;11.50;11.10;;;12.60;99.90;;;;;;6141210;23;20204;-81
2022/05/05 05:18:20;;;;;;;11.63;11.23;;;12.60;99.90;;;;;;6141799;23;20197;-82
2022/05/05 05:20:48;;;;;;;11.37;10.97;;;12.70;99.90;;;;;;6142593;23;20221;-82
2022/05/05 05:23:18;;;;;;;11.67;11.27;;;12.80;99.90;;;;;;6144606;23;20256;-82
2022/05/05 05:25:46;;;;;;;11.77;11.37;;;12.80;99.90;;;;;;6141802;23;20200;-82
2022/05/05 05:28:15;;;;;;;11.80;11.40;;;12.90;99.90;;;;;;6141626;23;20280;-81
2022/05/05 05:30:44;;;;;;;11.70;11.30;;;12.90;99.90;;;;;;6141675;23;20201;-80
2022/05/05 05:33:15;;;;;;;11.60;11.20;;;13.00;99.90;;;;;;6142274;23;20209;-82
2022/05/05 05:35:44;;;;;;;11.50;11.10;;;13.00;99.90;;;;;;6140959;23;20189;-82
2022/05/05 05:38:12;;;;;;;11.30;10.90;;;13.00;99.90;;;;;;6141341;23;20204;-82
2022/05/05 05:40:41;;;;;;;11.37;10.97;;;13.00;99.90;;;;;;6141085;23;20222;-81
2022/05/05 05:43:08;;;;;;;11.60;11.20;;;13.00;99.90;;;;;;6141725;23;20213;-82
2022/05/05 05:45:36;;;;;;;11.40;11.00;;;13.00;99.90;;;;;;6141262;23;20220;-83
2022/05/05 05:48:07;;;;;;;11.30;10.90;;;13.00;99.90;;;;;;6141791;23;20197;-83
2022/05/05 05:50:35;;;;;;;10.90;10.60;;;13.10;99.90;;;;;;6141696;23;20200;-82
2022/05/05 05:53:03;;;;;;;11.17;10.80;;;13.20;99.90;;;;;;6142040;23;20212;-82
2022/05/05 05:55:31;;;;;;;11.60;11.20;;;13.30;99.90;;;;;;6141639;23;20201;-82
2022/05/05 05:58:02;;;;;;;11.27;10.87;;;13.40;99.90;;;;;;6141524;23;20201;-81
2022/05/05 06:00:33;;;;;;;10.73;10.43;;;13.30;99.90;;;;;;6141564;23;20181;-82
2022/05/05 06:05:48;;;;;;;11.07;10.77;;;13.40;99.90;;;;;;6141742;23;20189;-82
2022/05/05 06:08:17;;;;;;;10.83;10.53;;;13.30;99.90;;;;;;6142738;23;20201;-82
2022/05/05 06:10:45;;;;;;;10.90;10.60;;;13.30;99.90;;;;;;6141167;23;20245;-82
2022/05/05 06:13:14;;;;;;;11.10;10.70;;;13.30;99.90;;;;;;6141336;23;20209;-82
2022/05/05 06:15:42;;;;;;;10.80;10.50;;;13.30;99.90;;;;;;6141418;23;20205;-82
2022/05/05 06:18:09;;;;;;;11.00;10.70;;;13.40;99.90;;;;;;6144524;23;20253;-81
2022/05/05 06:20:37;;;;;;;11.07;10.77;;;13.20;99.90;;;;;;6143607;23;20205;-82
2022/05/05 06:23:07;;;;;;;10.80;10.50;;;13.10;99.90;;;;;;6142381;23;20255;-81
2022/05/05 06:25:35;;;;;;;11.03;10.73;;;13.20;99.90;;;;;;6141210;23;20200;-82
2022/05/05 06:28:06;;;;;;;10.87;10.57;;;13.30;99.90;;;;;;6140604;23;20268;-82
2022/05/05 06:30:36;;;;;;;11.50;11.10;;;13.30;99.90;;;;;;6141053;23;20211;-81
2022/05/05 06:33:05;;;;;;;11.13;10.80;;;13.50;99.90;;;;;;6140955;23;20204;-81
2022/05/05 06:35:36;;;;;;;10.97;10.67;;;13.60;99.90;;;;;;6141491;23;20197;-81
2022/05/05 06:38:06;;;;;;;10.80;10.50;;;13.60;99.90;;;;;;6141509;23;20253;-81
2022/05/05 06:40:35;;;;;;;11.07;10.77;;;13.60;99.90;;;;;;6141535;23;20256;-82
2022/05/05 06:43:03;;;;;;;10.97;10.67;;;13.70;99.90;;;;;;6143009;23;20201;-82
2022/05/05 06:45:31;;;;;;;10.80;10.50;;;13.70;99.90;;;;;;6142920;23;20197;-82
2022/05/05 06:48:01;;;;;;;10.90;10.60;;;13.70;99.90;;;;;;6142863;23;20193;-82
2022/05/05 06:50:31;;;;;;;10.70;10.40;;;13.80;99.90;;;;;;6143332;23;20204;-82
2022/05/05 06:53:00;;;;;;;11.10;10.80;;;13.90;99.90;;;;;;6142556;23;20209;-81
2022/05/05 06:55:31;;;;;;;10.60;10.30;;;14.00;99.90;;;;;;6143055;23;20221;-82
2022/05/05 06:57:59;;;;;;;10.40;10.10;;;14.10;99.90;;;;;;6143408;23;20192;-82
2022/05/05 07:01:51;;;;;;;10.50;10.20;;;14.20;99.90;;;;;;6143955;23;20524;-82
2022/05/05 07:03:15;;;;;;;10.55;10.25;;;14.40;99.90;;;;;;6144472;23;20350;-81
2022/05/05 07:05:42;;;;;;;10.63;10.32;;;14.60;99.90;;;;;;6141548;23;21033;-81
2022/05/05 07:08:15;;;;;;;10.82;10.52;;;14.80;99.90;;;;;;6141199;23;20200;-80
2022/05/05 07:10:54;;;;;;;10.85;10.55;;;15.00;99.90;;;;;;6142693;23;20201;-81
2022/05/05 07:13:23;;;;;;;10.13;9.82;;;15.20;99.90;;;;;;6144507;23;20209;-82
2022/05/05 07:15:52;;;;;;;10.05;9.75;;;15.20;99.90;;;;;;6144133;23;20208;-81
2022/05/05 07:18:22;;;;;;;10.00;9.70;;;15.40;99.90;;;;;;6142241;23;20201;-81
2022/05/05 07:20:51;;;;;;;10.07;9.77;;;15.40;99.90;;;;;;6142026;23;20197;-82
2022/05/05 07:23:21;;;;;;;9.70;9.40;;;15.40;99.90;;;;;;6145505;23;20223;-81
2022/05/05 07:25:52;;;;;;;10.05;9.75;;;15.50;99.90;;;;;;6151724;23;20196;-81
2022/05/05 07:28:20;;;;;;;10.25;9.95;;;15.70;99.90;;;;;;6147265;23;20193;-82
2022/05/05 07:30:49;;;;;;;9.85;9.55;;;15.70;99.90;;;;;;6143823;23;20193;-81
2022/05/05 07:33:19;;;;;;;10.10;9.80;;;15.70;99.90;;;;;;6143434;23;20205;-81
2022/05/05 07:35:49;;;;;;;9.60;9.30;;;15.80;99.90;;;;;;6143093;23;20205;-81
2022/05/05 07:38:18;;;;;;;10.30;10.00;;;15.90;99.90;;;;;;6142952;23;20224;-82
2022/05/05 07:40:48;;;;;;;10.18;9.88;;;15.90;99.90;;;;;;6142472;23;20292;-82
2022/05/05 07:43:26;;;;;;;10.25;9.95;;;16.00;99.90;;;;;;6143082;23;20197;-81
2022/05/05 07:45:55;;;;;;;10.00;9.70;;;16.10;99.90;;;;;;6143075;23;20201;-82
2022/05/05 07:48:25;;;;;;;9.80;9.50;;;16.00;99.90;;;;;;6142892;23;20265;-82
2022/05/05 07:50:54;;;;;;;9.80;9.50;;;15.80;99.90;;;;;;6142940;23;20204;-81
2022/05/05 07:53:24;;;;;;;9.77;9.48;;;15.90;99.90;;;;;;6142988;23;20204;-82
2022/05/05 07:55:54;;;;;;;10.00;9.70;;;16.00;99.90;;;;;;6142488;23;20197;-82
2022/05/05 07:58:25;;;;;;;10.05;9.75;;;16.10;99.90;;;;;;6142545;23;20200;-83
2022/05/05 08:00:53;;;;;;;9.90;9.60;;;16.20;99.90;;;;;;6142991;23;20201;-83
2022/05/05 08:03:21;;;;;;;10.00;9.70;;;16.30;99.90;;;;;;6142802;23;20209;-82
2022/05/05 08:05:51;;;;;;;10.10;9.80;;;16.50;99.90;;;;;;6144164;23;20204;-83
2022/05/05 08:08:26;;;;;;;9.88;9.57;;;16.70;99.90;;;;;;6142506;23;20223;-83
2022/05/05 08:11:09;;;;;;;10.10;9.80;;;16.80;99.90;;;;;;6141851;23;20196;-83
2022/05/05 08:13:40;;;;;;;10.10;9.80;;;17.00;99.90;;;;;;6142124;23;20204;-83
2022/05/05 08:16:09;;;;;;;10.25;9.95;;;17.30;99.90;;;;;;6142593;23;20204;-83
2022/05/05 08:18:39;;;;;;;9.93;9.63;;;17.60;99.90;;;;;;6143112;23;20281;-83
2022/05/05 08:21:10;;;;;;;10.20;9.90;;;17.70;99.90;;;;;;6141756;23;20221;-83
2022/05/05 08:23:39;;;;;;;10.20;9.90;;;17.90;99.90;;;;;;6141972;23;20201;-83
2022/05/05 08:29:00;;;;;;;10.02;9.73;;;18.10;99.90;;;;;;6143288;23;20185;-83
2022/05/05 08:31:31;;;;;;;10.32;10.02;;;17.90;99.90;;;;;;6143668;23;20201;-83
2022/05/05 08:34:01;;;;;;;10.00;9.70;;;17.70;99.90;;;;;;6151426;23;20260;-82
2022/05/05 08:36:29;;;;;;;10.15;9.85;;;17.60;99.90;;;;;;6151683;23;20239;-83
2022/05/05 08:39:08;;;;;;;9.90;9.60;;;17.80;99.90;;;;;;6155228;23;20197;-83
2022/05/05 08:45:06;;;;;;;9.90;9.60;;;18.00;99.90;;;;;;4662275;27;15160293;-83
2022/05/05 08:48:04;;;;;;;10.43;10.13;;;18.00;99.90;;;;;;5185353;27;20417;-82
2022/05/05 08:53:20;;;;;;;10.10;9.80;;;18.60;99.90;;;;;;5185905;27;20313;-82
2022/05/05 08:58:45;;;;;;;10.25;9.95;;;19.20;99.90;;;;;;5182191;27;20244;-82
2022/05/05 09:01:23;;;;;;;10.23;9.93;;;19.30;99.90;;;;;;5184571;27;20263;-83
2022/05/05 09:03:54;;;;;;;10.30;10.00;;;19.20;99.90;;;;;;5183919;27;20230;-82
2022/05/05 09:06:48;;;;;;;10.32;10.02;;;19.30;99.90;;;;;;5182484;27;20307;-82
2022/05/05 09:10:03;;;;;;;10.45;10.15;;;19.30;99.90;;;;;;5182893;27;20250;-82
2022/05/05 09:12:35;;;;;;;10.30;10.00;;;19.60;99.90;;;;;;5183635;27;20236;-82
2022/05/05 09:21:13;;;;;;;9.85;9.55;;;19.60;99.90;;;;;;5183569;27;20260;-82
2022/05/05 09:26:35;;;;;;;10.32;10.02;;;19.90;99.90;;;;;;5181037;27;20226;-82
2022/05/05 09:29:23;;;;;;;10.50;10.20;;;20.00;99.90;;;;;;5182697;27;20240;-82
2022/05/05 09:31:56;;;;;;;10.23;9.93;;;20.20;99.90;;;;;;5182402;27;20230;-82
2022/05/05 09:35:16;;;;;;;10.77;10.48;;;20.50;99.90;;;;;;5182354;27;20241;-81
2022/05/05 09:40:43;;;;;;;10.02;9.73;;;20.80;99.90;;;;;;5135571;27;20217;-81
2022/05/05 09:43:19;;;;;;;9.95;9.65;;;20.80;99.90;;;;;;5189137;27;20309;-81
2022/05/05 09:45:49;;;;;;;9.90;9.60;;;21.10;99.90;;;;;;5183625;27;20250;-82
2022/05/05 09:51:17;;;;;;;9.88;9.57;;;21.00;99.90;;;;;;5179325;27;20215;-82
2022/05/05 09:59:25;;;;;;;10.40;10.10;;;20.60;99.90;;;;;;5167027;27;20275;-82
2022/05/05 10:02:07;;;;;;;10.48;10.18;;;20.80;99.90;;;;;;5166255;27;20694;-82
2022/05/05 10:04:41;;;;;;;10.80;10.50;;;21.40;99.90;;;;;;5166127;27;20238;-82
2022/05/05 10:13:23;;;;;;;10.48;10.18;;;21.80;99.90;;;;;;5165232;27;20214;-82
2022/05/05 10:16:00;;;;;;;10.57;10.27;;;21.20;99.90;;;;;;5166827;27;20227;-82
2022/05/05 10:18:39;;;;;;;10.65;10.35;;;21.20;99.90;;;;;;5168383;27;20812;-82
2022/05/05 10:21:27;;;;;;;10.55;10.25;;;21.30;99.90;;;;;;5168958;27;20280;-82
2022/05/05 10:24:23;;;;;;;10.65;10.35;;;21.20;99.90;;;;;;5168109;27;20227;-82
2022/05/05 10:29:48;;;;;;;10.30;10.00;;;20.90;99.90;;;;;;5171036;27;20216;-82
2022/05/05 10:32:35;;;;;;;10.20;9.90;;;20.80;99.90;;;;;;5176108;27;20235;-82
2022/05/05 10:35:39;;;;;;;10.35;10.05;;;20.80;99.90;;;;;;5172982;27;20231;-82
2022/05/05 10:45:20;;;;;;;10.65;10.35;;;19.70;99.90;;;;;;5166632;27;20223;-82
2022/05/05 10:48:31;;;;;;;10.73;10.43;;;19.90;99.90;;;;;;5168304;27;20256;-82
2022/05/05 10:51:12;;;;;;;10.80;10.50;;;20.40;99.90;;;;;;5168390;27;20273;-82
2022/05/05 10:53:51;;;;;;;11.00;10.70;;;21.00;99.90;;;;;;5168682;27;20284;-82
2022/05/05 11:00:22;;;;;;;10.98;10.68;;;21.90;99.90;;;;;;5174626;27;20322;-83
2022/05/05 11:03:19;;;;;;;11.10;10.80;;;22.50;99.90;;;;;;5168857;27;20326;-83
2022/05/05 11:05:57;;;;;;;10.90;10.60;;;22.20;99.90;;;;;;5168571;27;20228;-82
2022/05/05 11:12:17;;;;;;;11.60;11.30;;;21.60;99.90;;;;;;5103020;28;20228;-83
2022/05/05 11:24:44;;;;;;;10.82;10.52;;;22.10;99.90;;;;;;5128942;27;20217;-81
2022/05/05 11:34:45;;;;;;;10.80;10.50;;;22.30;99.90;;;;;;5178771;27;20314;-82
2022/05/05 11:37:28;;;;;;;10.73;10.43;;;21.80;99.90;;;;;;5095692;28;20222;-82
2022/05/05 11:40:17;;;;;;;10.50;10.20;;;21.70;99.90;;;;;;5095129;28;20303;-82
2022/05/05 11:49:11;;;;;;;10.75;10.45;;;23.40;99.90;;;;;;5133208;27;20215;-82
2022/05/05 11:51:55;;;;;;;10.40;10.10;;;23.50;99.90;;;;;;5181762;27;20203;-81
2022/05/05 11:57:45;;;;;;;10.60;10.30;;;22.50;99.90;;;;;;5178641;27;20257;-82
2022/05/05 12:06:25;;;;;;;10.60;10.30;;;22.40;99.90;;;;;;5178045;27;20223;-82
2022/05/05 12:09:17;;;;;;;10.80;10.50;;;22.30;99.90;;;;;;5178044;27;20227;-82
2022/05/05 12:11:48;;;;;;;10.40;10.10;;;22.50;99.90;;;;;;5179018;27;20219;-82
2022/05/05 12:17:11;;;;;;;10.63;10.32;;;22.00;99.90;;;;;;5177982;27;20258;-81
2022/05/05 12:26:28;;;;;;;;;;;;;;;;;;;;;
2022/05/05 12:29:23;;;;;;;10.90;10.60;;;22.60;99.90;;;;;;5176177;27;20224;-82
2022/05/05 12:32:09;;;;;;;11.00;10.70;;;22.90;99.90;;;;;;5180204;27;20203;-82
2022/05/05 12:38:20;;;;;;;10.73;10.43;;;23.30;99.90;;;;;;5170062;27;20263;-82
2022/05/05 12:44:54;;;;;;;10.75;10.45;;;23.90;99.90;;;;;;5174320;27;20254;-82
2022/05/05 12:48:06;;;;;;;11.15;10.85;;;23.90;99.90;;;;;;5178739;27;20219;-83
2022/05/05 12:51:39;;;;;;;11.00;10.70;;;23.60;99.90;;;;;;5179741;27;20219;-83
2022/05/05 13:03:11;;;;;;;11.20;10.90;;;25.00;99.90;;;;;;5189942;22;20394;-83
2022/05/05 13:05:40;;;;;;;10.90;10.60;;;25.20;99.90;;;;;;5122003;28;20239;-81
2022/05/05 13:08:10;;;;;;;10.90;10.60;;;25.20;99.90;;;;;;5128981;28;20259;-82
2022/05/05 13:10:40;;;;;;;10.90;10.60;;;24.80;99.90;;;;;;5123426;28;20213;-82
2022/05/05 13:13:09;;;;;;;10.85;10.55;;;24.80;99.90;;;;;;5121323;28;21101;-83
2022/05/05 13:15:38;;;;;;;10.80;10.50;;;24.80;99.90;;;;;;5122459;28;20255;-81
2022/05/05 13:18:07;;;;;;;10.90;10.60;;;25.20;99.90;;;;;;5139275;27;20224;-81
2022/05/05 13:20:37;;;;;;;10.95;10.65;;;25.70;99.90;;;;;;5132848;27;20224;-83
2022/05/05 13:23:06;;;;;;;10.65;10.35;;;26.20;99.90;;;;;;5123070;28;20240;-82
2022/05/05 13:25:35;;;;;;;10.70;10.40;;;26.30;99.90;;;;;;5121387;28;20235;-83
2022/05/05 13:28:05;;;;;;;10.73;10.43;;;26.30;99.90;;;;;;5121401;28;20224;-83
2022/05/05 13:30:35;;;;;;;11.07;10.77;;;26.50;99.90;;;;;;5121939;28;20323;-83
2022/05/05 13:33:04;;;;;;;11.30;11.00;;;26.80;99.90;;;;;;5122286;28;20216;-83
2022/05/05 13:35:36;;;;;;;11.18;10.88;;;26.70;99.90;;;;;;5123322;28;20259;-83
2022/05/05 13:38:05;;;;;;;10.95;10.65;;;26.80;99.90;;;;;;5124589;28;20259;-83
2022/05/05 13:40:35;;;;;;;11.00;10.70;;;26.40;99.90;;;;;;5124482;28;20228;-82
2022/05/05 13:43:04;;;;;;;10.70;10.40;;;25.90;99.90;;;;;;5124705;28;20229;-82
2022/05/05 13:45:35;;;;;;;10.77;10.48;;;24.80;99.90;;;;;;5125437;28;20672;-82
2022/05/05 13:48:04;;;;;;;10.80;10.50;;;24.20;99.90;;;;;;5125910;28;20236;-81
2022/05/05 13:50:32;;;;;;;10.70;10.40;;;23.90;99.90;;;;;;5124940;28;20241;-82
2022/05/05 13:53:01;;;;;;;10.82;10.52;;;23.70;99.90;;;;;;5125422;28;20236;-83
2022/05/05 13:55:31;;;;;;;10.70;10.40;;;23.70;99.90;;;;;;5125299;28;20241;-82
2022/05/05 13:58:01;;;;;;;11.50;11.18;;;23.40;99.90;;;;;;5131598;28;20252;-82
2022/05/05 14:00:30;;;;;;;11.30;11.00;;;23.30;99.90;;;;;;5128803;28;20247;-82
2022/05/05 14:03:00;;;;;;;11.20;10.90;;;23.20;99.90;;;;;;5126663;28;20224;-82
2022/05/05 14:05:30;;;;;;;11.10;10.80;;;23.20;99.90;;;;;;5125739;28;20229;-83
2022/05/05 14:13:33;;;;;;;10.80;10.50;;;22.60;99.90;;;;;;5125820;28;20354;-82
2022/05/05 14:16:01;;;;;;;10.95;10.65;;;22.50;99.90;;;;;;5125243;28;20739;-82
2022/05/05 14:18:40;;;;;;;11.10;10.80;;;22.50;99.90;;;;;;5123832;28;20239;-82
2022/05/05 14:21:09;;;;;;;10.70;10.40;;;22.50;99.90;;;;;;5123449;28;20259;-82
2022/05/05 14:23:38;;;;;;;10.60;10.30;;;22.50;99.90;;;;;;5125486;28;20248;-83
2022/05/05 14:26:08;;;;;;;10.85;10.55;;;22.20;99.90;;;;;;5136201;28;20322;-81
2022/05/05 14:28:37;;;;;;;11.30;11.00;;;22.10;99.90;;;;;;5140194;28;20229;-82
2022/05/05 14:31:07;;;;;;;10.90;10.60;;;22.30;99.90;;;;;;5128836;28;20235;-81
2022/05/05 14:33:40;;;;;;;11.32;11.02;;;22.60;99.90;;;;;;5126225;28;20232;-81
2022/05/05 14:36:08;;;;;;;11.30;11.00;;;23.30;99.90;;;;;;5125115;28;20232;-80
2022/05/05 14:38:36;;;;;;;11.30;11.00;;;23.80;99.90;;;;;;5126625;28;20239;-81
2022/05/05 14:41:06;;;;;;;10.90;10.60;;;24.20;99.90;;;;;;5125742;27;20236;-81
2022/05/05 14:43:34;;;;;;;11.38;11.07;;;24.50;99.90;;;;;;5125313;28;20216;-81
2022/05/05 14:46:03;;;;;;;11.20;10.90;;;25.10;99.90;;;;;;5124981;28;20232;-82
2022/05/05 14:48:33;;;;;;;11.10;10.80;;;25.60;99.90;;;;;;5125313;28;20231;-81
2022/05/05 14:51:07;;;;;;;11.10;10.80;;;25.60;99.90;;;;;;5122810;28;20221;-81
2022/05/05 14:53:35;;;;;;;10.88;10.57;;;24.90;99.90;;;;;;5121949;28;20228;-81
2022/05/05 14:56:03;;;;;;;10.77;10.48;;;24.60;99.90;;;;;;5123447;28;20687;-81
2022/05/05 14:58:31;;;;;;;10.77;10.48;;;24.40;99.90;;;;;;5122912;28;20232;-81
2022/05/05 15:01:00;;;;;;;10.60;10.30;;;24.00;99.90;;;;;;5122766;28;20260;-81
2022/05/05 15:03:30;;;;;;;10.70;10.40;;;23.90;99.90;;;;;;5124262;28;20236;-81
2022/05/05 15:06:00;;;;;;;10.52;10.23;;;24.40;99.90;;;;;;5122595;28;20236;-82
2022/05/05 15:08:32;;;;;;;10.60;10.30;;;25.10;99.90;;;;;;5122712;28;20227;-81
2022/05/05 15:10:59;;;;;;;10.70;10.40;;;25.60;99.90;;;;;;5122520;28;20366;-81
2022/05/05 15:13:29;;;;;;;10.23;9.93;;;26.00;99.90;;;;;;5123555;28;20224;-81